Time;durP1;ratioP1;P1;durP2;ratioP2;P2;SDS_P1;SDS_P2;PMS_P1;PMS_P2;Temp;Humidity;BMP_temperature;BMP_pressure;BME280_temperature;BME280_humidity;BME280_pressure;Samples;Min_cycle;Max_cycle;Signal;HPM_P1;HPM_P2
2021/08/27 00:02:25;;;;;;;1.92;0.10;;;13.50;99.90;;;;;;4950812;29;20046;-85
2021/08/27 00:04:51;;;;;;;2.55;0.20;;;13.50;99.90;;;;;;4934753;29;20035;-85
2021/08/27 00:07:17;;;;;;;1.95;0.20;;;13.50;99.90;;;;;;4950943;29;20042;-85
2021/08/27 00:09:42;;;;;;;4.30;0.20;;;13.60;99.90;;;;;;4934796;29;20031;-85
2021/08/27 00:12:08;;;;;;;3.72;0.20;;;13.60;99.90;;;;;;4934816;29;20031;-85
2021/08/27 00:14:34;;;;;;;2.83;0.20;;;13.70;99.90;;;;;;4950534;29;20046;-85
2021/08/27 00:17:00;;;;;;;3.95;0.20;;;13.70;99.90;;;;;;4950396;29;20043;-85
2021/08/27 00:19:25;;;;;;;1.80;0.60;;;13.70;99.90;;;;;;4950645;29;20059;-85
2021/08/27 00:21:51;;;;;;;3.55;0.15;;;13.70;99.90;;;;;;4950916;29;20039;-85
2021/08/27 00:24:17;;;;;;;3.10;0.20;;;13.60;99.90;;;;;;4950416;29;20042;-85
2021/08/27 00:26:42;;;;;;;3.05;0.20;;;13.60;99.90;;;;;;4950614;29;20035;-85
2021/08/27 00:29:08;;;;;;;3.65;0.20;;;13.60;99.90;;;;;;4950458;29;20126;-85
2021/08/27 00:31:34;;;;;;;1.85;0.15;;;13.60;99.90;;;;;;4950473;29;20031;-85
2021/08/27 00:33:59;;;;;;;2.40;0.10;;;13.60;99.90;;;;;;4950472;29;20039;-85
2021/08/27 00:36:25;;;;;;;3.15;0.20;;;13.60;99.90;;;;;;4934646;29;20395;-85
2021/08/27 00:38:51;;;;;;;3.53;0.10;;;13.70;99.90;;;;;;4950544;29;20035;-85
2021/08/27 00:41:18;;;;;;;5.72;0.40;;;13.70;99.90;;;;;;4934640;29;20039;-85
2021/08/27 00:43:44;;;;;;;2.47;0.45;;;13.70;99.90;;;;;;4934282;29;20031;-86
2021/08/27 00:46:10;;;;;;;0.85;0.10;;;13.70;99.90;;;;;;4950325;29;20042;-85
2021/08/27 00:48:35;;;;;;;2.60;0.10;;;13.80;99.90;;;;;;4934267;29;20050;-85
2021/08/27 00:51:04;;;;;;;5.72;0.20;;;13.80;99.90;;;;;;4934502;29;20031;-85
2021/08/27 00:53:31;;;;;;;1.30;0.15;;;13.80;99.90;;;;;;4934164;29;20130;-85
2021/08/27 00:55:57;;;;;;;3.38;0.30;;;13.80;99.90;;;;;;4949789;29;20081;-86
2021/08/27 00:58:23;;;;;;;1.38;0.40;;;13.80;99.90;;;;;;4950239;29;20028;-86
2021/08/27 01:00:48;;;;;;;1.15;0.20;;;13.70;99.90;;;;;;4934267;29;20043;-86
2021/08/27 01:03:19;;;;;;;2.58;0.17;;;13.70;99.90;;;;;;4934181;29;20035;-86
2021/08/27 01:06:02;;;;;;;2.30;0.20;;;13.50;99.90;;;;;;4935692;29;20062;-86
2021/08/27 01:08:52;;;;;;;1.73;0.20;;;13.60;99.90;;;;;;4953983;29;20031;-86
2021/08/27 01:11:26;;;;;;;2.58;0.20;;;13.50;99.90;;;;;;4937866;29;20480;-86
2021/08/27 01:13:57;;;;;;;1.35;0.10;;;13.40;99.90;;;;;;4937760;29;20039;-86
2021/08/27 01:16:31;;;;;;;2.50;0.17;;;13.40;99.90;;;;;;4937780;29;20050;-86
2021/08/27 01:19:31;;;;;;;1.77;0.10;;;13.20;99.90;;;;;;4937646;29;20027;-86
2021/08/27 01:22:24;;;;;;;2.85;0.15;;;13.20;99.90;;;;;;4937698;29;20042;-86
2021/08/27 01:24:51;;;;;;;2.05;0.15;;;13.10;99.90;;;;;;4937564;29;20035;-86
2021/08/27 01:27:19;;;;;;;5.25;0.10;;;13.10;99.90;;;;;;4953561;29;20027;-86
2021/08/27 01:29:56;;;;;;;1.85;0.30;;;13.00;99.90;;;;;;4953385;29;20042;-86
2021/08/27 01:32:43;;;;;;;7.13;0.30;;;13.00;99.90;;;;;;4937487;29;20039;-86
2021/08/27 01:35:10;;;;;;;1.67;0.20;;;12.90;99.90;;;;;;4952996;29;20035;-86
2021/08/27 01:37:37;;;;;;;2.65;0.10;;;12.80;99.90;;;;;;4937689;29;20097;-86
2021/08/27 01:40:04;;;;;;;3.55;0.20;;;12.80;99.90;;;;;;4937154;29;20035;-86
2021/08/27 01:42:30;;;;;;;4.25;0.30;;;12.70;99.90;;;;;;4937344;29;20524;-87
2021/08/27 01:44:57;;;;;;;4.00;0.32;;;12.60;99.90;;;;;;4937146;29;20118;-86
2021/08/27 01:47:28;;;;;;;0.68;0.10;;;12.50;99.90;;;;;;4937194;29;20051;-86
2021/08/27 01:49:55;;;;;;;3.25;0.20;;;12.50;99.90;;;;;;4953082;29;20035;-86
2021/08/27 01:52:21;;;;;;;2.28;0.20;;;12.40;99.90;;;;;;4937262;29;20042;-86
2021/08/27 01:54:48;;;;;;;0.80;0.10;;;12.40;99.90;;;;;;4952779;29;20035;-86
2021/08/27 01:57:14;;;;;;;1.65;0.20;;;12.30;99.90;;;;;;4937095;29;20035;-86
2021/08/27 01:59:42;;;;;;;1.55;0.10;;;12.30;99.90;;;;;;4936994;29;20074;-86
2021/08/27 02:02:10;;;;;;;1.55;0.10;;;12.20;99.90;;;;;;4953165;29;20031;-86
2021/08/27 02:04:39;;;;;;;3.05;0.13;;;12.20;99.90;;;;;;4952917;29;20109;-86
2021/08/27 02:07:06;;;;;;;2.95;0.20;;;12.10;99.90;;;;;;4952897;29;20054;-86
2021/08/27 02:09:34;;;;;;;2.50;0.10;;;12.10;99.90;;;;;;4936950;29;20035;-86
2021/08/27 02:12:00;;;;;;;2.03;0.10;;;12.10;99.90;;;;;;4936836;29;20035;-86
2021/08/27 02:14:26;;;;;;;2.40;0.32;;;11.90;99.90;;;;;;4936841;29;20395;-86
2021/08/27 02:16:52;;;;;;;2.25;0.10;;;11.90;99.90;;;;;;4951408;29;20039;-86
2021/08/27 02:19:18;;;;;;;1.35;0.10;;;12.00;99.90;;;;;;4936705;29;20063;-86
2021/08/27 02:21:50;;;;;;;3.70;0.65;;;12.00;99.90;;;;;;4952396;29;20039;-86
2021/08/27 02:24:21;;;;;;;2.22;0.10;;;12.00;99.90;;;;;;4969643;29;20491;-86
2021/08/27 02:26:48;;;;;;;1.75;0.10;;;11.90;99.90;;;;;;4936513;29;20028;-87
2021/08/27 02:29:17;;;;;;;5.05;0.20;;;11.90;99.90;;;;;;4952574;29;20099;-86
2021/08/27 02:31:48;;;;;;;4.60;0.60;;;11.90;99.90;;;;;;4936528;29;20035;-86
2021/08/27 02:34:16;;;;;;;3.97;0.70;;;11.90;99.90;;;;;;4936299;29;20130;-85
2021/08/27 02:36:52;;;;;;;2.05;0.20;;;12.00;99.90;;;;;;4936388;29;20126;-86
2021/08/27 02:39:19;;;;;;;1.58;0.20;;;12.10;99.90;;;;;;4936413;29;20464;-86
2021/08/27 02:41:46;;;;;;;2.00;0.10;;;12.10;99.90;;;;;;4936584;29;20528;-86
2021/08/27 02:44:11;;;;;;;2.17;0.20;;;12.10;99.90;;;;;;4936116;29;20058;-86
2021/08/27 02:46:37;;;;;;;1.58;0.20;;;12.20;99.90;;;;;;4936265;29;20031;-86
2021/08/27 02:49:02;;;;;;;1.92;0.20;;;12.20;99.90;;;;;;4936162;29;20514;-86
2021/08/27 02:51:34;;;;;;;2.22;0.15;;;12.10;99.90;;;;;;4936173;29;20033;-86
2021/08/27 02:54:03;;;;;;;1.17;0.10;;;12.20;99.90;;;;;;4935893;29;20038;-86
2021/08/27 02:56:33;;;;;;;2.25;0.20;;;12.30;99.90;;;;;;4935892;29;20392;-86
2021/08/27 02:58:59;;;;;;;;;;;12.30;99.90;;;;;;4936606;29;20057;-86
2021/08/27 03:01:36;;;;;;;3.20;0.28;;;12.30;99.90;;;;;;4935909;29;19922;-86
2021/08/27 03:04:08;;;;;;;1.77;0.20;;;12.40;99.90;;;;;;4951714;29;20075;-86
2021/08/27 03:06:43;;;;;;;4.60;0.20;;;12.40;99.90;;;;;;4935828;29;20039;-87
2021/08/27 03:09:10;;;;;;;1.02;0.20;;;12.50;99.90;;;;;;4935905;29;20035;-85
2021/08/27 03:11:57;;;;;;;2.40;0.20;;;12.60;99.90;;;;;;4968736;29;20046;-86
2021/08/27 03:14:30;;;;;;;2.85;0.20;;;12.60;99.90;;;;;;4951690;29;20130;-85
2021/08/27 03:17:00;;;;;;;2.40;0.22;;;12.70;99.90;;;;;;4932211;29;20046;-86
2021/08/27 03:19:28;;;;;;;;;;;12.80;99.90;;;;;;4916963;29;20032;-86
2021/08/27 03:22:06;;;;;;;2.78;0.20;;;12.90;99.90;;;;;;4916500;29;19954;-86
2021/08/27 03:24:35;;;;;;;3.78;0.20;;;12.90;99.90;;;;;;4916350;29;20036;-86
2021/08/27 03:27:06;;;;;;;6.73;0.50;;;13.10;99.90;;;;;;4916562;29;20052;-85
2021/08/27 03:29:37;;;;;;;1.13;0.10;;;13.10;99.90;;;;;;4916403;29;20062;-86
2021/08/27 03:32:05;;;;;;;3.75;0.30;;;13.10;99.90;;;;;;4932297;29;20124;-86
2021/08/27 03:34:31;;;;;;;4.03;0.20;;;13.10;99.90;;;;;;4916323;29;20035;-86
2021/08/27 03:36:58;;;;;;;3.10;0.20;;;13.10;99.90;;;;;;4931951;29;20040;-86
2021/08/27 03:39:25;;;;;;;1.50;0.20;;;13.10;99.90;;;;;;4916254;29;20035;-86
2021/08/27 03:41:52;;;;;;;3.65;0.30;;;13.10;99.90;;;;;;4917238;29;20147;-86
2021/08/27 03:44:19;;;;;;;2.92;0.20;;;13.10;99.90;;;;;;4917595;29;20043;-86
2021/08/27 03:46:45;;;;;;;4.28;0.20;;;13.10;99.90;;;;;;4931007;29;20067;-85
2021/08/27 03:49:12;;;;;;;3.70;0.20;;;13.10;99.90;;;;;;4950686;29;20191;-86
2021/08/27 03:51:41;;;;;;;3.90;0.20;;;13.10;99.90;;;;;;4933221;29;20095;-86
2021/08/27 03:54:07;;;;;;;4.72;0.30;;;13.00;99.90;;;;;;4947487;29;20030;-86
2021/08/27 03:56:34;;;;;;;3.40;0.20;;;13.00;99.90;;;;;;4931773;29;20086;-86
2021/08/27 03:59:00;;;;;;;2.72;0.20;;;13.00;99.90;;;;;;4942413;29;20034;-86
2021/08/27 04:01:26;;;;;;;5.88;0.28;;;13.00;99.90;;;;;;4950623;29;20035;-85
2021/08/27 04:03:51;;;;;;;1.50;0.20;;;13.10;99.90;;;;;;4950707;29;20042;-86
2021/08/27 04:06:18;;;;;;;4.30;0.20;;;13.00;99.90;;;;;;4950506;29;20035;-86
2021/08/27 04:08:43;;;;;;;4.95;0.32;;;13.10;99.90;;;;;;4950295;29;20051;-86
2021/08/27 04:11:14;;;;;;;2.92;0.22;;;13.10;99.90;;;;;;4950583;29;20035;-86
2021/08/27 04:13:40;;;;;;;4.43;0.22;;;13.20;99.90;;;;;;4967519;29;20054;-86
2021/08/27 04:16:06;;;;;;;2.20;0.20;;;13.20;99.90;;;;;;4950842;29;20027;-85
2021/08/27 04:18:32;;;;;;;3.55;0.40;;;13.30;99.90;;;;;;4931278;29;20031;-87
2021/08/27 04:20:59;;;;;;;1.48;0.43;;;13.30;99.90;;;;;;4947329;29;20056;-86
2021/08/27 04:23:25;;;;;;;1.73;0.30;;;13.20;99.90;;;;;;4947535;29;20087;-87
2021/08/27 04:25:51;;;;;;;2.42;0.20;;;13.30;99.90;;;;;;4947069;29;20027;-86
2021/08/27 04:28:18;;;;;;;5.28;0.30;;;13.30;99.90;;;;;;4947756;29;20062;-86
2021/08/27 04:30:43;;;;;;;3.00;0.20;;;13.30;99.90;;;;;;4950567;29;20019;-87
2021/08/27 04:33:09;;;;;;;2.30;0.20;;;13.30;99.90;;;;;;4950398;29;20130;-85
2021/08/27 04:35:35;;;;;;;3.78;0.30;;;13.20;99.90;;;;;;4950206;29;20054;-87
2021/08/27 04:38:01;;;;;;;1.13;0.20;;;13.40;99.90;;;;;;4934674;29;20027;-87
2021/08/27 04:40:27;;;;;;;5.78;0.38;;;13.40;99.90;;;;;;4951260;29;20031;-87
2021/08/27 04:42:53;;;;;;;2.35;0.10;;;13.30;99.90;;;;;;4954282;29;20031;-88
2021/08/27 04:45:20;;;;;;;1.20;0.20;;;13.30;99.90;;;;;;4954170;29;20131;-87
2021/08/27 04:47:45;;;;;;;5.32;0.20;;;13.20;99.90;;;;;;4953513;29;20043;-87
2021/08/27 04:50:13;;;;;;;1.25;0.20;;;13.20;99.90;;;;;;4953818;29;20039;-87
2021/08/27 04:52:39;;;;;;;2.20;0.30;;;13.30;99.90;;;;;;4954278;29;20035;-88
2021/08/27 04:55:06;;;;;;;4.13;0.20;;;13.20;99.90;;;;;;4954202;29;20067;-88
2021/08/27 04:57:34;;;;;;;4.90;0.30;;;13.30;99.90;;;;;;4937801;29;20062;-86
2021/08/27 04:59:59;;;;;;;2.45;0.55;;;13.30;99.90;;;;;;4940461;29;20047;-87
2021/08/27 05:02:25;;;;;;;3.10;0.30;;;13.30;99.90;;;;;;4935698;29;20055;-87
2021/08/27 05:04:50;;;;;;;1.65;0.10;;;13.30;99.90;;;;;;4947988;29;20027;-87
2021/08/27 05:07:16;;;;;;;2.30;0.30;;;13.30;99.90;;;;;;4953454;29;20553;-87
2021/08/27 05:09:42;;;;;;;2.40;0.22;;;13.40;99.90;;;;;;4937643;29;20058;-87
2021/08/27 05:12:08;;;;;;;1.88;0.20;;;13.50;99.90;;;;;;4937748;29;20032;-87
2021/08/27 05:14:34;;;;;;;2.95;0.22;;;13.50;99.90;;;;;;4936861;29;20031;-87
2021/08/27 05:17:00;;;;;;;2.78;0.10;;;13.50;99.90;;;;;;4931752;29;20047;-87
2021/08/27 05:19:25;;;;;;;3.17;0.22;;;13.50;99.90;;;;;;4934166;29;20052;-87
2021/08/27 05:21:51;;;;;;;2.85;0.20;;;13.60;99.90;;;;;;4934105;29;20424;-86
2021/08/27 05:24:17;;;;;;;3.90;0.20;;;13.70;99.90;;;;;;4933822;29;20095;-86
2021/08/27 05:26:42;;;;;;;3.42;0.25;;;13.80;99.90;;;;;;4934048;29;20043;-87
2021/08/27 05:29:08;;;;;;;2.00;0.30;;;13.80;99.90;;;;;;4933957;29;20058;-87
2021/08/27 05:31:34;;;;;;;1.75;0.30;;;13.90;99.90;;;;;;4950049;29;20040;-87
2021/08/27 05:34:00;;;;;;;3.15;0.20;;;13.90;99.90;;;;;;4933782;29;20063;-88
2021/08/27 05:36:27;;;;;;;4.00;0.30;;;14.00;99.90;;;;;;4933893;29;20054;-87
2021/08/27 05:38:53;;;;;;;1.70;0.20;;;14.00;99.90;;;;;;4933733;29;20165;-87
2021/08/27 05:41:18;;;;;;;2.25;0.40;;;14.00;99.90;;;;;;4933622;29;20043;-87
2021/08/27 05:43:44;;;;;;;1.08;0.20;;;14.00;99.90;;;;;;4933811;29;20035;-87
2021/08/27 05:46:10;;;;;;;2.85;0.28;;;14.10;99.90;;;;;;4933627;29;20035;-86
2021/08/27 05:48:36;;;;;;;3.33;0.30;;;14.10;99.90;;;;;;4941818;29;20048;-87
2021/08/27 05:51:01;;;;;;;1.63;0.20;;;14.10;99.90;;;;;;4952454;28;20035;-87
2021/08/27 05:53:27;;;;;;;2.65;0.25;;;14.10;99.90;;;;;;4935499;29;20035;-86
2021/08/27 05:55:53;;;;;;;4.18;0.20;;;14.20;99.90;;;;;;4952504;29;20039;-87
2021/08/27 05:58:20;;;;;;;4.95;0.25;;;14.20;99.90;;;;;;4952260;29;20054;-87
2021/08/27 06:00:46;;;;;;;4.43;0.30;;;14.30;99.90;;;;;;4936378;29;20043;-88
2021/08/27 06:03:12;;;;;;;1.52;0.20;;;14.30;99.90;;;;;;4952654;29;20039;-88
2021/08/27 06:05:38;;;;;;;2.40;0.20;;;14.40;99.90;;;;;;4952250;29;20063;-86
2021/08/27 06:08:04;;;;;;;3.00;0.50;;;14.40;99.90;;;;;;4969301;29;20031;-86
2021/08/27 06:10:29;;;;;;;1.23;0.10;;;14.50;99.90;;;;;;4952103;29;20038;-88
2021/08/27 06:12:55;;;;;;;4.68;0.73;;;14.50;99.90;;;;;;4952122;29;20066;-87
2021/08/27 06:15:21;;;;;;;1.92;0.20;;;14.50;99.90;;;;;;4936022;29;20599;-86
2021/08/27 06:17:46;;;;;;;2.25;0.20;;;14.50;99.90;;;;;;4933030;29;20039;-86
2021/08/27 06:20:12;;;;;;;1.92;0.20;;;14.40;99.90;;;;;;4932892;29;20042;-86
2021/08/27 06:22:38;;;;;;;3.65;0.17;;;14.30;99.90;;;;;;4932775;29;20130;-88
2021/08/27 06:25:05;;;;;;;1.75;0.25;;;14.10;99.90;;;;;;4916915;29;20035;-86
2021/08/27 06:27:31;;;;;;;0.63;0.10;;;13.90;99.90;;;;;;4917026;29;20119;-87
2021/08/27 06:30:00;;;;;;;1.77;0.10;;;13.90;99.90;;;;;;4917058;29;20024;-87
2021/08/27 06:32:26;;;;;;;1.63;0.10;;;13.80;99.90;;;;;;4933043;29;20046;-87
2021/08/27 06:34:53;;;;;;;1.48;0.10;;;13.90;99.90;;;;;;4916843;29;20036;-87
2021/08/27 06:37:19;;;;;;;2.25;0.10;;;14.00;99.90;;;;;;4932578;29;20079;-87
2021/08/27 06:39:45;;;;;;;1.00;0.10;;;14.00;99.90;;;;;;4916745;29;20059;-87
2021/08/27 06:42:10;;;;;;;1.70;0.10;;;14.10;99.90;;;;;;4916954;29;20480;-88
2021/08/27 06:44:36;;;;;;;4.05;0.10;;;14.10;99.90;;;;;;4916594;29;20107;-85
2021/08/27 06:47:02;;;;;;;2.58;0.20;;;14.20;99.90;;;;;;4916968;29;20034;-85
2021/08/27 06:49:28;;;;;;;1.55;0.20;;;14.30;99.90;;;;;;4928360;29;20062;-85
2021/08/27 06:51:53;;;;;;;1.65;0.13;;;14.40;99.90;;;;;;4948425;29;20028;-85
2021/08/27 06:54:19;;;;;;;2.67;0.20;;;14.50;99.90;;;;;;4932050;29;20566;-85
2021/08/27 06:56:44;;;;;;;1.30;0.20;;;14.40;99.90;;;;;;4948169;29;20058;-85
2021/08/27 06:59:10;;;;;;;2.40;0.25;;;14.50;99.90;;;;;;4932190;29;20103;-86
2021/08/27 07:01:35;;;;;;;2.15;0.20;;;14.50;99.90;;;;;;4948065;29;20039;-86
2021/08/27 07:04:01;;;;;;;4.18;0.20;;;14.60;99.90;;;;;;4931628;29;20112;-86
2021/08/27 07:06:27;;;;;;;3.65;0.20;;;14.70;99.90;;;;;;4947928;29;20032;-87
2021/08/27 07:08:53;;;;;;;3.50;0.65;;;14.90;99.90;;;;;;4949065;29;20032;-87
2021/08/27 07:11:18;;;;;;;1.52;0.25;;;15.30;99.90;;;;;;4948063;29;20036;-87
2021/08/27 07:13:45;;;;;;;2.55;0.20;;;15.60;99.90;;;;;;4947722;29;20039;-86
2021/08/27 07:16:11;;;;;;;2.67;0.20;;;15.50;99.90;;;;;;4947376;29;20035;-86
2021/08/27 07:18:39;;;;;;;0.88;0.13;;;15.60;99.90;;;;;;4950705;29;20043;-86
2021/08/27 07:21:06;;;;;;;2.70;0.20;;;15.60;99.90;;;;;;4934909;29;20053;-87
2021/08/27 07:23:32;;;;;;;3.50;0.20;;;15.90;99.90;;;;;;4935017;29;20046;-87
2021/08/27 07:25:57;;;;;;;1.35;0.20;;;16.10;99.90;;;;;;4950890;29;20082;-86
2021/08/27 07:28:23;;;;;;;1.48;0.17;;;16.20;99.90;;;;;;4934806;29;20059;-86
2021/08/27 07:30:49;;;;;;;2.05;0.52;;;16.20;99.90;;;;;;4934778;29;20043;-86
2021/08/27 07:33:15;;;;;;;3.05;0.20;;;16.10;99.90;;;;;;4950844;29;20035;-86
2021/08/27 07:35:41;;;;;;;1.15;0.22;;;15.80;99.90;;;;;;4934691;29;20106;-86
2021/08/27 07:38:07;;;;;;;5.35;0.88;;;15.70;99.90;;;;;;4934815;29;20035;-86
2021/08/27 07:40:32;;;;;;;3.03;0.20;;;15.80;99.90;;;;;;4950475;29;20063;-86
2021/08/27 07:42:58;;;;;;;2.55;0.20;;;15.80;99.90;;;;;;4950478;29;20031;-87
2021/08/27 07:45:24;;;;;;;1.58;0.20;;;16.10;99.90;;;;;;4950477;29;20036;-88
2021/08/27 07:47:49;;;;;;;2.08;0.17;;;16.40;99.90;;;;;;4934269;29;20051;-87
2021/08/27 07:50:16;;;;;;;3.28;0.20;;;16.80;99.90;;;;;;4950142;29;20539;-86
2021/08/27 07:52:41;;;;;;;2.53;0.20;;;17.10;99.90;;;;;;4934319;29;20031;-85
2021/08/27 07:55:08;;;;;;;2.50;0.20;;;17.40;99.90;;;;;;4933993;29;20031;-86
2021/08/27 07:57:38;;;;;;;3.05;0.20;;;17.00;99.90;;;;;;4950041;29;20039;-86
2021/08/27 08:00:05;;;;;;;2.70;0.20;;;17.00;99.90;;;;;;4934256;29;20042;-85
2021/08/27 08:02:30;;;;;;;1.85;0.35;;;17.20;99.90;;;;;;4950189;29;20032;-87
2021/08/27 08:04:56;;;;;;;4.38;0.47;;;17.20;99.90;;;;;;4934001;29;20039;-87
2021/08/27 08:07:22;;;;;;;2.00;0.20;;;17.20;99.90;;;;;;4949971;29;20041;-85
2021/08/27 08:09:47;;;;;;;2.85;0.20;;;16.80;99.90;;;;;;4933929;29;20031;-85
2021/08/27 08:12:13;;;;;;;1.92;0.20;;;16.70;99.90;;;;;;4934135;29;20069;-85
2021/08/27 08:14:38;;;;;;;0.80;0.10;;;16.80;99.90;;;;;;4949192;29;20487;-86
2021/08/27 08:17:04;;;;;;;2.25;0.10;;;16.70;99.90;;;;;;4949432;29;20510;-86
2021/08/27 08:19:30;;;;;;;1.05;0.20;;;16.80;99.90;;;;;;4934132;29;20039;-86
2021/08/27 08:21:55;;;;;;;2.75;0.10;;;17.00;99.90;;;;;;4950139;29;20043;-86
2021/08/27 08:24:21;;;;;;;2.58;0.15;;;17.30;99.90;;;;;;4933982;29;20035;-87
2021/08/27 08:26:47;;;;;;;1.10;0.10;;;17.10;99.90;;;;;;4933887;29;20031;-86
2021/08/27 08:29:12;;;;;;;3.20;0.20;;;17.40;99.90;;;;;;4934035;29;20024;-87
2021/08/27 08:31:38;;;;;;;1.63;0.20;;;17.40;99.90;;;;;;4933943;29;20380;-87
2021/08/27 08:34:04;;;;;;;1.83;0.20;;;17.50;99.90;;;;;;4933769;29;20124;-86
2021/08/27 08:36:30;;;;;;;1.98;0.25;;;17.60;99.90;;;;;;4933481;29;20122;-85
2021/08/27 08:38:56;;;;;;;1.40;0.20;;;17.50;99.90;;;;;;4933922;29;20535;-86
2021/08/27 08:41:22;;;;;;;1.38;0.20;;;17.50;99.90;;;;;;4949669;29;20188;-85
2021/08/27 08:43:49;;;;;;;3.28;0.20;;;17.70;99.90;;;;;;4949854;29;20055;-86
2021/08/27 08:49:36;;;;;;;;;;;17.60;99.90;;;;;;4983057;28;20126;-86
2021/08/27 08:52:03;;;;;;;5.93;0.30;;;17.60;99.90;;;;;;4953156;28;19994;-86
2021/08/27 08:54:30;;;;;;;2.05;0.20;;;17.80;99.90;;;;;;4968955;28;20090;-86
2021/08/27 08:56:57;;;;;;;4.35;0.30;;;17.80;99.90;;;;;;4953613;28;20046;-86
2021/08/27 08:59:26;;;;;;;2.97;0.20;;;17.50;99.90;;;;;;4953058;28;20027;-86
2021/08/27 09:01:52;;;;;;;4.22;0.50;;;17.50;99.90;;;;;;4953274;28;20050;-85
2021/08/27 09:04:17;;;;;;;4.00;0.30;;;17.70;99.90;;;;;;4953125;28;20051;-85
2021/08/27 09:06:44;;;;;;;2.88;0.32;;;18.30;99.90;;;;;;4952922;28;20066;-85
2021/08/27 09:09:09;;;;;;;3.72;0.30;;;18.80;99.90;;;;;;4952967;28;20042;-86
2021/08/27 09:11:35;;;;;;;2.65;0.20;;;18.20;99.90;;;;;;4968427;28;20038;-85
2021/08/27 09:14:03;;;;;;;1.50;0.22;;;18.10;99.90;;;;;;4952710;28;20038;-85
2021/08/27 09:16:32;;;;;;;2.45;0.30;;;17.90;99.90;;;;;;4952498;28;20487;-86
2021/08/27 09:18:59;;;;;;;2.88;0.20;;;17.80;99.90;;;;;;4968781;28;20058;-86
2021/08/27 09:21:46;;;;;;;3.97;0.30;;;18.20;99.90;;;;;;4968594;28;20042;-87
2021/08/27 09:24:22;;;;;;;1.98;0.30;;;18.30;99.90;;;;;;4952578;28;20031;-86
2021/08/27 09:27:00;;;;;;;1.77;0.20;;;18.60;99.90;;;;;;4969816;28;20037;-85
2021/08/27 09:29:39;;;;;;;3.05;0.50;;;18.90;99.90;;;;;;4956317;28;20027;-87
2021/08/27 09:32:27;;;;;;;4.17;0.50;;;18.30;99.90;;;;;;4989511;28;20176;-86
2021/08/27 09:35:21;;;;;;;6.57;0.25;;;18.30;99.90;;;;;;4955990;28;20041;-87
2021/08/27 09:37:54;;;;;;;6.22;0.40;;;18.00;99.90;;;;;;4955297;28;20086;-88
2021/08/27 09:40:31;;;;;;;4.45;0.30;;;17.70;99.90;;;;;;4955914;28;20031;-87
2021/08/27 09:42:59;;;;;;;1.73;0.20;;;17.80;99.90;;;;;;4956016;28;20102;-86
2021/08/27 09:45:41;;;;;;;2.47;0.20;;;17.80;99.90;;;;;;4955882;28;20027;-86
2021/08/27 09:48:12;;;;;;;6.65;0.85;;;17.40;99.90;;;;;;4971513;28;20110;-86
2021/08/27 09:50:47;;;;;;;3.60;0.20;;;16.70;99.90;;;;;;4971770;28;20394;-86
2021/08/27 09:53:14;;;;;;;3.90;0.20;;;16.50;99.90;;;;;;4955372;28;20543;-86
2021/08/27 09:56:07;;;;;;;2.50;0.20;;;16.60;99.90;;;;;;4955922;28;20051;-87
2021/08/27 09:58:51;;;;;;;3.40;0.30;;;17.30;99.90;;;;;;4970433;28;20030;-86
2021/08/27 10:01:17;;;;;;;2.60;0.20;;;18.00;99.90;;;;;;4955709;28;20034;-87
2021/08/27 10:03:43;;;;;;;5.65;0.50;;;18.10;99.90;;;;;;4954976;28;20037;-86
2021/08/27 10:06:32;;;;;;;2.35;0.20;;;17.90;99.90;;;;;;4955288;28;20031;-87
2021/08/27 10:08:57;;;;;;;2.67;0.20;;;17.90;99.90;;;;;;4971426;28;20137;-86
2021/08/27 10:11:23;;;;;;;3.65;0.25;;;18.00;99.90;;;;;;4955345;28;20034;-85
2021/08/27 10:13:49;;;;;;;2.30;0.20;;;17.80;99.90;;;;;;4955222;28;20063;-86
2021/08/27 10:16:15;;;;;;;5.40;0.43;;;18.00;99.90;;;;;;4955136;28;20383;-86
2021/08/27 10:18:41;;;;;;;5.93;0.38;;;17.90;99.90;;;;;;4970983;28;20027;-86
2021/08/27 10:21:07;;;;;;;3.33;0.52;;;17.90;99.90;;;;;;4955128;28;20129;-85
2021/08/27 10:23:33;;;;;;;3.45;0.20;;;17.90;99.90;;;;;;4954692;28;20082;-86
2021/08/27 10:26:11;;;;;;;5.40;0.45;;;17.90;99.90;;;;;;4955024;28;20114;-88
2021/08/27 10:28:37;;;;;;;4.60;0.30;;;17.40;99.90;;;;;;4955157;28;20035;-89
2021/08/27 10:31:03;;;;;;;4.55;0.40;;;17.20;99.90;;;;;;4955205;28;20146;-89
2021/08/27 10:33:41;;;;;;;5.10;0.30;;;17.20;99.90;;;;;;4954974;28;20085;-90
2021/08/27 10:36:22;;;;;;;7.38;0.40;;;16.90;99.90;;;;;;4971398;28;20066;-94
2021/08/27 10:38:53;;;;;;;7.53;0.70;;;16.40;99.90;;;;;;4958391;28;20030;-94
2021/08/27 10:41:36;;;;;;;1.52;0.35;;;16.20;99.90;;;;;;4959388;28;20034;-95
2021/08/27 10:44:13;;;;;;;2.15;0.30;;;16.10;99.90;;;;;;4956104;28;20039;-94
2021/08/27 10:46:45;;;;;;;1.85;0.13;;;16.00;99.90;;;;;;4955877;28;20039;-94
2021/08/27 10:49:12;;;;;;;3.42;0.20;;;16.30;99.90;;;;;;4956376;28;20145;-94
2021/08/27 10:51:39;;;;;;;5.85;0.35;;;16.20;99.90;;;;;;4955951;28;20027;-92
2021/08/27 10:54:07;;;;;;;3.22;0.30;;;16.40;99.90;;;;;;4955207;28;20086;-96
2021/08/27 10:56:49;;;;;;;3.47;0.30;;;16.50;99.90;;;;;;4955444;28;20042;-93
2021/08/27 10:59:15;;;;;;;3.80;0.25;;;16.70;99.90;;;;;;4955136;28;20555;-92
2021/08/27 11:01:46;;;;;;;5.57;0.30;;;16.70;99.90;;;;;;4955404;28;20050;-96
2021/08/27 11:04:23;;;;;;;3.83;0.20;;;16.80;99.90;;;;;;4954408;28;20050;-93
2021/08/27 11:06:55;;;;;;;2.88;0.30;;;16.50;99.90;;;;;;4971070;28;20490;-94
2021/08/27 11:09:32;;;;;;;2.35;0.40;;;16.40;99.90;;;;;;4970850;28;20035;-90
2021/08/27 11:12:10;;;;;;;5.53;0.60;;;16.30;99.90;;;;;;4970452;28;20041;-92
2021/08/27 11:14:46;;;;;;;3.92;0.22;;;16.50;99.90;;;;;;4954075;28;20034;-91
2021/08/27 11:17:14;;;;;;;1.63;0.20;;;16.30;99.90;;;;;;4954903;29;20035;-93
2021/08/27 11:19:55;;;;;;;5.03;0.30;;;16.30;99.90;;;;;;4935085;29;20027;-92
2021/08/27 11:22:29;;;;;;;3.67;0.38;;;16.60;99.90;;;;;;4935185;29;20039;-92
2021/08/27 11:25:04;;;;;;;2.88;0.30;;;17.00;99.90;;;;;;4935139;29;20534;-92
2021/08/27 11:27:32;;;;;;;2.60;0.30;;;17.30;99.90;;;;;;4935045;29;20054;-90
2021/08/27 11:30:01;;;;;;;3.75;0.30;;;17.40;99.90;;;;;;4934935;29;20035;-90
2021/08/27 11:32:26;;;;;;;4.07;0.30;;;17.70;99.90;;;;;;4950967;29;20484;-89
2021/08/27 11:34:52;;;;;;;3.00;0.22;;;17.90;99.90;;;;;;4950881;29;20287;-91
2021/08/27 11:37:18;;;;;;;2.72;0.50;;;18.00;99.90;;;;;;4950744;29;20051;-89
2021/08/27 11:39:46;;;;;;;1.92;0.20;;;18.00;99.90;;;;;;4934857;29;20035;-89
2021/08/27 11:42:12;;;;;;;3.20;0.30;;;18.10;99.90;;;;;;4934664;29;20058;-91
2021/08/27 11:44:42;;;;;;;2.90;0.30;;;18.20;99.90;;;;;;4950532;29;20118;-89
2021/08/27 11:47:13;;;;;;;3.55;0.30;;;18.80;99.90;;;;;;4934861;29;20496;-90
2021/08/27 11:49:53;;;;;;;1.58;0.20;;;18.70;99.90;;;;;;4951163;28;20058;-90
2021/08/27 11:52:28;;;;;;;2.40;0.30;;;18.80;99.90;;;;;;4953834;28;20035;-87
2021/08/27 11:55:05;;;;;;;3.35;0.30;;;18.80;99.90;;;;;;4969428;28;20109;-90
2021/08/27 11:57:32;;;;;;;3.30;0.30;;;18.70;99.90;;;;;;4953655;28;20045;-89
2021/08/27 12:00:09;;;;;;;2.97;0.55;;;18.90;99.90;;;;;;4953453;28;20090;-89
2021/08/27 12:02:38;;;;;;;5.55;1.33;;;19.10;99.90;;;;;;4969979;28;20042;-91
2021/08/27 12:05:09;;;;;;;3.45;0.30;;;18.70;99.90;;;;;;4969437;28;20030;-90
2021/08/27 12:07:40;;;;;;;3.83;0.30;;;18.40;99.90;;;;;;4969439;28;20047;-88
2021/08/27 12:10:13;;;;;;;3.80;0.40;;;18.60;99.90;;;;;;4953486;28;20023;-89
2021/08/27 12:12:43;;;;;;;4.80;0.35;;;19.00;99.90;;;;;;4953343;28;20360;-89
2021/08/27 12:15:14;;;;;;;5.30;0.30;;;19.00;99.90;;;;;;4953173;28;20030;-89
2021/08/27 12:17:51;;;;;;;3.30;0.50;;;18.70;99.90;;;;;;4957901;29;20046;-87
2021/08/27 12:20:18;;;;;;;4.80;0.40;;;18.00;99.90;;;;;;4949874;29;20068;-93
2021/08/27 12:28:15;;;;;;;3.95;0.30;;;16.70;99.90;;;;;;4986708;28;20082;-96
2021/08/27 12:30:50;;;;;;;4.57;0.30;;;16.80;99.90;;;;;;4955243;28;20046;-96
2021/08/27 12:33:23;;;;;;;7.60;0.40;;;17.00;99.90;;;;;;4956195;28;20061;-95
2021/08/27 12:35:49;;;;;;;4.45;0.30;;;17.10;99.90;;;;;;4955325;28;20038;-95
2021/08/27 12:38:16;;;;;;;3.13;0.40;;;17.20;99.90;;;;;;4954705;28;20538;-96
2021/08/27 12:40:42;;;;;;;2.70;0.40;;;17.50;99.90;;;;;;4954159;28;20058;-95
2021/08/27 12:43:20;;;;;;;7.20;0.93;;;17.70;99.90;;;;;;4954242;28;20038;-94
2021/08/27 12:45:49;;;;;;;2.20;0.40;;;17.90;99.90;;;;;;4954205;28;20098;-95
2021/08/27 12:48:17;;;;;;;7.93;0.40;;;17.90;99.90;;;;;;4953263;28;20501;-91
2021/08/27 12:51:01;;;;;;;6.60;0.50;;;18.10;99.90;;;;;;4953486;28;20058;-92
2021/08/27 12:53:35;;;;;;;5.43;0.45;;;18.40;99.90;;;;;;4969042;28;20033;-91
2021/08/27 12:56:16;;;;;;;3.83;0.30;;;18.70;99.90;;;;;;4953041;28;20042;-91
2021/08/27 12:58:54;;;;;;;4.95;0.82;;;19.40;99.90;;;;;;4953399;28;20045;-92
2021/08/27 13:01:25;;;;;;;5.75;0.52;;;19.40;99.90;;;;;;4954061;28;20038;-95
2021/08/27 13:03:55;;;;;;;5.50;0.60;;;18.90;99.90;;;;;;4956971;28;20039;-90
2021/08/27 13:06:42;;;;;;;;;;;18.70;99.90;;;;;;4957140;28;20027;-91